»·PEaware :: AAL117 KLAS-KONT

AAL117 :: KLAS-KONT

FLIGHT INFORMATION

Flight Status: Arrived
Operator:
American Airlines
More flights by this operator :: More flights under this callsign
Pilot: Adam W. (20046)
Aircraft: AIRBUS A320
(A320)
More flights by this aircraft type
Origin: KLAS McCarran Intl
United States
Destination: KONT Ontario Intl
United States
More flights between these airports :: More routes between these airports
Route: +BOACH8 WHIGG FEYLA EAGLZ2
File this flight plan on PilotEdge
Remarks:
Altitude:
(Current/Filed)
28,000ft
Speed:
(Current/Filed)
450kts
Departed: 12-Mar-19 02:14 PM
Arrived: 12-Mar-19 02:52 PM
Distance/Time
Traveled:
170nm/0:38
Distance/Time
To Go:
Arrived

Flight Plot

Page will automatically refresh every two minutes.

Flight plan parsing failed; only flown route is shown


Map Options




Map Legend


Flown Route
Filed Route
Departure Airport
Arrival Airport
Navaid (VOR, NDB)
Fix

Horizontal Profiles

Position Reports

Time Latitude Longitude Heading Altitude Ground
Speed
12-Mar-19 13:36 36.080503 -115.136427 41 2123ft 0kts
12-Mar-19 13:37 36.080503 -115.136427 41 2123ft 0kts
12-Mar-19 13:38 36.080503 -115.136427 41 2123ft 0kts
12-Mar-19 13:39 36.080503 -115.136427 41 2123ft 0kts
12-Mar-19 13:40 36.080503 -115.136427 41 2123ft 0kts
12-Mar-19 13:41 36.080503 -115.136427 41 2123ft 0kts
12-Mar-19 13:42 36.080503 -115.136427 41 2123ft 0kts
12-Mar-19 13:43 36.080503 -115.136427 41 2123ft 0kts
12-Mar-19 13:44 36.080503 -115.136427 41 2123ft 0kts
12-Mar-19 13:45 36.080503 -115.136427 41 2123ft 0kts
12-Mar-19 13:46 36.080503 -115.136427 41 2123ft 0kts
12-Mar-19 13:47 36.080503 -115.136427 41 2123ft 0kts
12-Mar-19 13:48 36.080503 -115.136427 41 2123ft 0kts
12-Mar-19 13:49 36.080503 -115.136427 41 2123ft 0kts
12-Mar-19 13:50 36.080503 -115.136427 41 2123ft 0kts
12-Mar-19 13:51 36.080503 -115.136427 41 2123ft 0kts
12-Mar-19 13:52 36.080503 -115.136427 41 2123ft 0kts
12-Mar-19 13:53 36.080503 -115.136427 41 2123ft 0kts
12-Mar-19 13:54 36.080503 -115.136427 41 2123ft 0kts
12-Mar-19 13:55 36.080503 -115.136427 41 2123ft 0kts
12-Mar-19 13:56 36.080316 -115.136662 39 2123ft 2kts
12-Mar-19 13:57 36.079940 -115.137066 73 2123ft 0kts
12-Mar-19 13:58 36.079680 -115.136750 137 2123ft 1kts
12-Mar-19 13:59 36.079386 -115.136415 136 2123ft 0kts
12-Mar-19 14:00 36.079386 -115.136415 136 2123ft 0kts
12-Mar-19 14:01 36.079386 -115.136415 136 2123ft 0kts
12-Mar-19 14:02 36.079306 -115.136328 139 2123ft 3kts
12-Mar-19 14:03 36.078275 -115.134463 91 2123ft 8kts
12-Mar-19 14:04 36.078280 -115.129577 90 2123ft 15kts
12-Mar-19 14:05 36.078279 -115.124027 89 2123ft 17kts
12-Mar-19 14:06 36.077429 -115.121432 144 2123ft 0kts
12-Mar-19 14:07 36.077429 -115.121432 144 2123ft 0kts
12-Mar-19 14:08 36.077429 -115.121432 144 2123ft 0kts
12-Mar-19 14:09 36.077429 -115.121432 144 2123ft 0kts
12-Mar-19 14:10 36.077429 -115.121432 144 2123ft 0kts
12-Mar-19 14:11 36.077429 -115.121432 144 2123ft 0kts
12-Mar-19 14:12 36.077269 -115.121343 162 2123ft 5kts
12-Mar-19 14:14 36.076452 -115.123752 270 2123ft 43kts
12-Mar-19 14:15 36.077215 -115.179907 274 3644ft 222kts
12-Mar-19 14:16 36.082414 -115.264052 270 6712ft 272kts
12-Mar-19 14:17 36.045139 -115.339646 188 10001ft 297kts
12-Mar-19 14:18 35.960109 -115.304436 177 11952ft 356kts
12-Mar-19 14:19 35.858178 -115.314378 179 14555ft 376kts
12-Mar-19 14:20 35.751563 -115.303064 174 16876ft 394kts
12-Mar-19 14:21 35.648598 -115.334652 228 18765ft 406kts
12-Mar-19 14:22 35.571972 -115.437862 229 19736ft 415kts
12-Mar-19 14:23 35.492517 -115.544442 230 21581ft 429kts
12-Mar-19 14:24 35.411409 -115.653806 229 22967ft 431kts
12-Mar-19 14:25 35.329580 -115.763738 230 24950ft 434kts
12-Mar-19 14:26 35.248282 -115.872620 231 27004ft 433kts
12-Mar-19 14:27 35.166673 -115.981237 231 27875ft 431kts
12-Mar-19 14:28 35.084955 -116.089496 231 27881ft 432kts
12-Mar-19 14:29 35.003056 -116.197385 229 27896ft 433kts
12-Mar-19 14:30 34.915275 -116.296938 225 25952ft 425kts
12-Mar-19 14:31 34.831510 -116.394662 226 22669ft 402kts
12-Mar-19 14:32 34.762433 -116.494264 236 20084ft 361kts
12-Mar-19 14:32 34.714890 -116.574313 236 19033ft 349kts
12-Mar-19 14:34 34.648718 -116.685594 235 17287ft 342kts
12-Mar-19 14:35 34.594799 -116.779646 243 15628ft 333kts
12-Mar-19 14:35 34.558176 -116.860984 242 14353ft 325kts
12-Mar-19 14:37 34.495171 -116.960979 230 12844ft 318kts
12-Mar-19 14:38 34.438248 -117.040876 231 11826ft 307kts
12-Mar-19 14:38 34.391813 -117.105988 232 10853ft 304kts
12-Mar-19 14:39 34.324133 -117.162421 199 9682ft 304kts
12-Mar-19 14:40 34.245705 -117.193166 198 9064ft 288kts
12-Mar-19 14:41 34.174738 -117.180270 162 9057ft 246kts
12-Mar-19 14:42 34.108937 -117.156694 162 8731ft 251kts
12-Mar-19 14:43 34.044301 -117.168327 242 7034ft 259kts
12-Mar-19 14:44 34.040780 -117.251099 281 5212ft 242kts
12-Mar-19 14:45 34.053949 -117.327500 283 4079ft 210kts
12-Mar-19 14:46 34.057207 -117.392588 271 3962ft 192kts
12-Mar-19 14:47 34.057090 -117.450221 270 3084ft 159kts
12-Mar-19 14:48 34.056999 -117.502584 270 2269ft 145kts
12-Mar-19 14:49 34.056941 -117.548899 269 1528ft 135kts
12-Mar-19 14:50 34.056885 -117.593577 270 948ft 106kts
12-Mar-19 14:51 34.057414 -117.602394 356 948ft 0kts
12-Mar-19 14:52 34.057999 -117.601881 87 948ft 11kts
12-Mar-19 14:53 34.058979 -117.599224 83 948ft 10kts
12-Mar-19 14:54 34.059001 -117.594479 90 948ft 16kts
12-Mar-19 14:55 34.059004 -117.589558 90 948ft 9kts
12-Mar-19 14:56 34.059828 -117.589206 359 948ft 1kts
12-Mar-19 14:57 34.059831 -117.589206 359 948ft 0kts
12-Mar-19 14:58 34.059831 -117.589206 359 948ft 0kts
12-Mar-19 14:59 34.059831 -117.589206 359 948ft 0kts
12-Mar-19 15:00 34.059831 -117.589206 359 948ft 0kts
12-Mar-19 15:01 34.059831 -117.589206 359 948ft 0kts

Navigation Log

Ident Type
Flight plan parsing failed, navigation log unavailable